sensor_id;sensor_type;location;lat;lon;timestamp;pressure;altitude;pressure_sealevel;temperature;humidity
36014;BME280;22275;43.208;27.620;2023-09-30T00:00:30;101413.50;;;19.88;100.00
36014;BME280;22275;43.208;27.620;2023-09-30T00:02:59;101397.66;;;19.75;100.00
36014;BME280;22275;43.208;27.620;2023-09-30T00:05:26;101406.34;;;19.98;100.00
36014;BME280;22275;43.208;27.620;2023-09-30T00:07:54;101405.38;;;19.89;100.00
36014;BME280;22275;43.208;27.620;2023-09-30T00:10:21;101408.75;;;19.91;100.00
36014;BME280;22275;43.208;27.620;2023-09-30T00:12:48;101403.03;;;19.75;100.00
36014;BME280;22275;43.208;27.620;2023-09-30T00:15:15;101403.66;;;19.58;100.00
36014;BME280;22275;43.208;27.620;2023-09-30T00:17:43;101392.72;;;19.40;100.00
36014;BME280;22275;43.208;27.620;2023-09-30T00:20:12;101404.75;;;19.35;100.00
36014;BME280;22275;43.208;27.620;2023-09-30T00:22:40;101397.00;;;19.52;100.00
36014;BME280;22275;43.208;27.620;2023-09-30T00:25:08;101398.13;;;19.50;100.00
36014;BME280;22275;43.208;27.620;2023-09-30T00:27:35;101402.50;;;19.51;100.00
36014;BME280;22275;43.208;27.620;2023-09-30T00:30:03;101390.38;;;19.26;100.00
36014;BME280;22275;43.208;27.620;2023-09-30T00:32:31;101407.16;;;19.38;100.00
36014;BME280;22275;43.208;27.620;2023-09-30T00:35:00;101409.63;;;19.41;100.00
36014;BME280;22275;43.208;27.620;2023-09-30T00:37:29;101402.03;;;19.46;100.00
36014;BME280;22275;43.208;27.620;2023-09-30T00:39:57;101378.13;;;19.44;100.00
36014;BME280;22275;43.208;27.620;2023-09-30T00:42:24;101399.28;;;19.57;100.00
36014;BME280;22275;43.208;27.620;2023-09-30T00:44:52;101395.41;;;19.71;100.00
36014;BME280;22275;43.208;27.620;2023-09-30T00:47:19;101375.69;;;19.62;100.00
36014;BME280;22275;43.208;27.620;2023-09-30T00:49:47;101375.69;;;19.62;100.00
36014;BME280;22275;43.208;27.620;2023-09-30T00:52:16;101394.38;;;19.62;100.00
36014;BME280;22275;43.208;27.620;2023-09-30T00:54:46;101380.94;;;19.43;100.00
36014;BME280;22275;43.208;27.620;2023-09-30T00:57:14;101378.44;;;19.51;100.00
36014;BME280;22275;43.208;27.620;2023-09-30T00:59:42;101373.97;;;19.61;100.00
36014;BME280;22275;43.208;27.620;2023-09-30T01:02:09;101376.94;;;19.58;100.00
36014;BME280;22275;43.208;27.620;2023-09-30T01:04:37;101363.53;;;19.48;100.00
36014;BME280;22275;43.208;27.620;2023-09-30T01:07:06;101374.91;;;19.50;100.00
36014;BME280;22275;43.208;27.620;2023-09-30T01:09:33;101375.84;;;19.40;100.00
36014;BME280;22275;43.208;27.620;2023-09-30T01:12:04;101380.25;;;19.30;100.00
36014;BME280;22275;43.208;27.620;2023-09-30T01:14:35;101384.25;;;19.35;100.00
36014;BME280;22275;43.208;27.620;2023-09-30T01:17:04;101391.78;;;19.30;100.00
36014;BME280;22275;43.208;27.620;2023-09-30T01:19:34;101380.22;;;19.41;100.00
36014;BME280;22275;43.208;27.620;2023-09-30T01:22:02;101376.81;;;19.39;100.00
36014;BME280;22275;43.208;27.620;2023-09-30T01:24:38;101374.19;;;19.28;100.00
36014;BME280;22275;43.208;27.620;2023-09-30T01:27:06;101375.75;;;19.30;100.00
36014;BME280;22275;43.208;27.620;2023-09-30T01:29:33;101396.44;;;19.49;100.00
36014;BME280;22275;43.208;27.620;2023-09-30T01:32:00;101378.44;;;19.51;100.00
36014;BME280;22275;43.208;27.620;2023-09-30T01:34:30;101393.63;;;19.50;100.00
36014;BME280;22275;43.208;27.620;2023-09-30T01:36:58;101387.72;;;19.36;100.00
36014;BME280;22275;43.208;27.620;2023-09-30T01:39:27;101398.66;;;19.44;100.00
36014;BME280;22275;43.208;27.620;2023-09-30T01:41:55;101394.97;;;19.24;100.00
36014;BME280;22275;43.208;27.620;2023-09-30T01:44:22;101391.53;;;19.13;100.00
36014;BME280;22275;43.208;27.620;2023-09-30T01:46:49;101403.28;;;19.21;100.00
36014;BME280;22275;43.208;27.620;2023-09-30T01:49:17;101395.03;;;19.13;100.00
36014;BME280;22275;43.208;27.620;2023-09-30T01:51:44;101400.25;;;19.15;100.00
36014;BME280;22275;43.208;27.620;2023-09-30T01:54:12;101395.84;;;19.04;100.00
36014;BME280;22275;43.208;27.620;2023-09-30T01:56:41;101395.16;;;18.91;100.00
36014;BME280;22275;43.208;27.620;2023-09-30T01:59:08;101322.75;;;18.21;100.00
36014;BME280;22275;43.208;27.620;2023-09-30T02:01:35;101406.88;;;18.68;100.00
36014;BME280;22275;43.208;27.620;2023-09-30T02:04:02;101406.28;;;18.75;100.00
36014;BME280;22275;43.208;27.620;2023-09-30T02:06:31;101409.91;;;18.74;100.00
36014;BME280;22275;43.208;27.620;2023-09-30T02:08:58;101377.47;;;18.47;100.00
36014;BME280;22275;43.208;27.620;2023-09-30T02:11:25;101402.75;;;18.75;100.00
36014;BME280;22275;43.208;27.620;2023-09-30T02:13:56;101414.84;;;18.79;100.00
36014;BME280;22275;43.208;27.620;2023-09-30T02:16:23;101407.91;;;18.87;100.00
36014;BME280;22275;43.208;27.620;2023-09-30T02:18:50;101407.94;;;18.76;100.00
36014;BME280;22275;43.208;27.620;2023-09-30T02:21:17;101392.88;;;18.86;100.00
36014;BME280;22275;43.208;27.620;2023-09-30T02:23:44;101412.88;;;18.92;100.00
36014;BME280;22275;43.208;27.620;2023-09-30T02:26:14;101392.94;;;18.75;100.00
36014;BME280;22275;43.208;27.620;2023-09-30T02:28:41;101393.13;;;18.83;100.00
36014;BME280;22275;43.208;27.620;2023-09-30T02:31:09;101405.47;;;18.84;100.00
36014;BME280;22275;43.208;27.620;2023-09-30T02:33:37;101408.56;;;18.80;100.00
36014;BME280;22275;43.208;27.620;2023-09-30T02:36:07;101406.34;;;18.85;100.00
36014;BME280;22275;43.208;27.620;2023-09-30T02:38:34;101411.38;;;18.78;100.00
36014;BME280;22275;43.208;27.620;2023-09-30T02:41:02;101399.44;;;18.82;100.00
36014;BME280;22275;43.208;27.620;2023-09-30T02:43:31;101405.88;;;18.80;100.00
36014;BME280;22275;43.208;27.620;2023-09-30T02:45:58;101398.28;;;18.75;100.00
36014;BME280;22275;43.208;27.620;2023-09-30T02:48:26;101385.13;;;18.52;100.00
36014;BME280;22275;43.208;27.620;2023-09-30T02:50:54;101411.56;;;18.44;100.00
36014;BME280;22275;43.208;27.620;2023-09-30T02:53:21;101399.66;;;18.36;100.00
36014;BME280;22275;43.208;27.620;2023-09-30T02:55:49;101406.00;;;18.35;100.00
36014;BME280;22275;43.208;27.620;2023-09-30T02:58:21;101389.16;;;18.24;100.00
36014;BME280;22275;43.208;27.620;2023-09-30T03:00:49;101410.69;;;18.43;100.00
36014;BME280;22275;43.208;27.620;2023-09-30T03:03:16;101392.66;;;18.35;100.00
36014;BME280;22275;43.208;27.620;2023-09-30T03:05:45;101391.84;;;18.24;100.00
36014;BME280;22275;43.208;27.620;2023-09-30T03:08:12;101396.91;;;18.27;100.00
36014;BME280;22275;43.208;27.620;2023-09-30T03:10:40;101410.50;;;18.13;100.00
36014;BME280;22275;43.208;27.620;2023-09-30T03:13:07;101399.97;;;18.11;100.00
36014;BME280;22275;43.208;27.620;2023-09-30T03:15:35;101414.63;;;18.06;100.00
36014;BME280;22275;43.208;27.620;2023-09-30T03:18:02;101394.88;;;18.08;100.00
36014;BME280;22275;43.208;27.620;2023-09-30T03:20:30;101371.03;;;17.96;100.00
36014;BME280;22275;43.208;27.620;2023-09-30T03:22:59;101405.03;;;18.14;100.00
36014;BME280;22275;43.208;27.620;2023-09-30T03:25:27;101419.00;;;18.18;100.00
36014;BME280;22275;43.208;27.620;2023-09-30T03:27:56;101416.09;;;18.21;100.00
36014;BME280;22275;43.208;27.620;2023-09-30T03:30:23;101420.94;;;18.16;100.00
36014;BME280;22275;43.208;27.620;2023-09-30T03:32:50;101421.16;;;18.24;100.00
36014;BME280;22275;43.208;27.620;2023-09-30T03:35:18;101413.66;;;18.18;100.00
36014;BME280;22275;43.208;27.620;2023-09-30T03:37:45;101415.38;;;18.19;100.00
36014;BME280;22275;43.208;27.620;2023-09-30T03:40:15;101415.38;;;18.19;100.00
36014;BME280;22275;43.208;27.620;2023-09-30T03:42:47;101413.75;;;18.16;100.00
36014;BME280;22275;43.208;27.620;2023-09-30T03:45:15;101421.53;;;18.08;100.00
36014;BME280;22275;43.208;27.620;2023-09-30T03:47:44;101419.25;;;17.93;100.00
36014;BME280;22275;43.208;27.620;2023-09-30T03:50:11;101421.19;;;18.02;100.00
36014;BME280;22275;43.208;27.620;2023-09-30T03:52:41;101432.81;;;18.01;100.00
36014;BME280;22275;43.208;27.620;2023-09-30T03:55:10;101421.19;;;17.91;100.00
36014;BME280;22275;43.208;27.620;2023-09-30T03:57:39;101391.00;;;17.57;100.00
36014;BME280;22275;43.208;27.620;2023-09-30T04:00:07;101419.50;;;17.78;100.00
36014;BME280;22275;43.208;27.620;2023-09-30T04:02:41;101431.25;;;17.76;100.00
36014;BME280;22275;43.208;27.620;2023-09-30T04:05:09;101416.34;;;17.73;100.00
36014;BME280;22275;43.208;27.620;2023-09-30T04:07:37;101427.72;;;17.75;100.00
36014;BME280;22275;43.208;27.620;2023-09-30T04:10:05;101427.81;;;17.74;100.00
36014;BME280;22275;43.208;27.620;2023-09-30T04:12:32;101432.09;;;17.76;100.00
36014;BME280;22275;43.208;27.620;2023-09-30T04:15:01;101427.00;;;17.73;100.00
36014;BME280;22275;43.208;27.620;2023-09-30T04:17:29;101426.97;;;17.62;100.00
36014;BME280;22275;43.208;27.620;2023-09-30T04:19:56;101407.25;;;17.54;100.00
36014;BME280;22275;43.208;27.620;2023-09-30T04:22:25;101421.78;;;17.61;100.00
36014;BME280;22275;43.208;27.620;2023-09-30T04:24:54;101415.59;;;17.60;100.00
36014;BME280;22275;43.208;27.620;2023-09-30T04:27:21;101418.97;;;17.62;100.00
36014;BME280;22275;43.208;27.620;2023-09-30T04:29:48;101432.44;;;17.61;100.00
36014;BME280;22275;43.208;27.620;2023-09-30T04:32:17;101424.81;;;17.56;100.00
36014;BME280;22275;43.208;27.620;2023-09-30T04:34:45;101428.56;;;17.65;100.00
36014;BME280;22275;43.208;27.620;2023-09-30T04:37:12;101430.88;;;17.69;100.00
36014;BME280;22275;43.208;27.620;2023-09-30T04:39:40;101438.50;;;17.74;100.00
36014;BME280;22275;43.208;27.620;2023-09-30T04:42:07;101434.00;;;17.74;100.00
36014;BME280;22275;43.208;27.620;2023-09-30T04:44:36;101435.00;;;17.85;100.00
36014;BME280;22275;43.208;27.620;2023-09-30T04:47:04;101428.91;;;17.71;100.00
36014;BME280;22275;43.208;27.620;2023-09-30T04:49:33;101430.38;;;17.75;100.00
36014;BME280;22275;43.208;27.620;2023-09-30T04:52:01;101436.44;;;17.77;100.00
36014;BME280;22275;43.208;27.620;2023-09-30T04:54:28;101430.63;;;17.72;100.00
36014;BME280;22275;43.208;27.620;2023-09-30T04:56:56;101441.06;;;17.75;100.00
36014;BME280;22275;43.208;27.620;2023-09-30T04:59:23;101455.56;;;17.83;100.00
36014;BME280;22275;43.208;27.620;2023-09-30T05:01:51;101444.69;;;17.86;100.00
36014;BME280;22275;43.208;27.620;2023-09-30T05:04:19;101434.53;;;17.91;100.00
36014;BME280;22275;43.208;27.620;2023-09-30T05:06:47;101441.53;;;17.92;100.00
36014;BME280;22275;43.208;27.620;2023-09-30T05:09:14;101447.47;;;17.95;100.00
36014;BME280;22275;43.208;27.620;2023-09-30T05:11:42;101446.16;;;18.01;100.00
36014;BME280;22275;43.208;27.620;2023-09-30T05:14:09;101443.72;;;18.09;100.00
36014;BME280;22275;43.208;27.620;2023-09-30T05:16:37;101452.47;;;18.22;100.00
36014;BME280;22275;43.208;27.620;2023-09-30T05:19:04;101414.16;;;18.12;100.00
36014;BME280;22275;43.208;27.620;2023-09-30T05:21:31;101444.19;;;18.36;100.00
36014;BME280;22275;43.208;27.620;2023-09-30T05:24:03;101440.44;;;18.38;100.00
36014;BME280;22275;43.208;27.620;2023-09-30T05:26:31;101445.13;;;18.46;100.00
36014;BME280;22275;43.208;27.620;2023-09-30T05:28:58;101437.13;;;18.57;100.00
36014;BME280;22275;43.208;27.620;2023-09-30T05:31:25;101461.56;;;18.73;100.00
36014;BME280;22275;43.208;27.620;2023-09-30T05:33:53;101453.28;;;18.87;100.00
36014;BME280;22275;43.208;27.620;2023-09-30T05:36:20;101461.53;;;18.96;100.00
36014;BME280;22275;43.208;27.620;2023-09-30T05:38:48;101456.47;;;19.13;100.00
36014;BME280;22275;43.208;27.620;2023-09-30T05:41:16;101432.25;;;19.26;100.00
36014;BME280;22275;43.208;27.620;2023-09-30T05:43:46;101455.69;;;19.54;100.00
36014;BME280;22275;43.208;27.620;2023-09-30T05:46:15;101441.31;;;19.76;100.00
36014;BME280;22275;43.208;27.620;2023-09-30T05:48:43;101464.09;;;20.00;100.00
36014;BME280;22275;43.208;27.620;2023-09-30T05:51:10;101454.09;;;20.02;100.00
36014;BME280;22275;43.208;27.620;2023-09-30T05:53:40;101454.19;;;19.91;100.00
36014;BME280;22275;43.208;27.620;2023-09-30T05:56:08;101450.16;;;20.06;100.00
36014;BME280;22275;43.208;27.620;2023-09-30T05:58:38;101449.75;;;20.32;100.00
36014;BME280;22275;43.208;27.620;2023-09-30T06:01:07;101455.16;;;20.51;100.00
36014;BME280;22275;43.208;27.620;2023-09-30T06:03:36;101431.75;;;20.53;100.00
36014;BME280;22275;43.208;27.620;2023-09-30T06:06:11;101451.25;;;20.74;100.00
36014;BME280;22275;43.208;27.620;2023-09-30T06:08:39;101452.78;;;20.86;100.00
36014;BME280;22275;43.208;27.620;2023-09-30T06:11:06;101447.22;;;21.08;100.00
36014;BME280;22275;43.208;27.620;2023-09-30T06:13:33;101454.09;;;21.20;100.00
36014;BME280;22275;43.208;27.620;2023-09-30T06:16:03;101437.16;;;21.30;100.00
36014;BME280;22275;43.208;27.620;2023-09-30T06:18:30;101448.00;;;21.38;100.00
36014;BME280;22275;43.208;27.620;2023-09-30T06:20:57;101451.50;;;21.57;100.00
36014;BME280;22275;43.208;27.620;2023-09-30T06:23:24;101444.44;;;21.66;100.00
36014;BME280;22275;43.208;27.620;2023-09-30T06:25:52;101437.63;;;21.81;100.00
36014;BME280;22275;43.208;27.620;2023-09-30T06:28:19;101444.97;;;21.89;100.00
36014;BME280;22275;43.208;27.620;2023-09-30T06:30:51;101435.81;;;22.18;100.00
36014;BME280;22275;43.208;27.620;2023-09-30T06:33:20;101443.19;;;22.07;100.00
36014;BME280;22275;43.208;27.620;2023-09-30T06:35:48;101436.59;;;22.01;100.00
36014;BME280;22275;43.208;27.620;2023-09-30T06:38:17;101441.81;;;22.30;100.00
36014;BME280;22275;43.208;27.620;2023-09-30T06:40:45;101443.63;;;22.39;100.00
36014;BME280;22275;43.208;27.620;2023-09-30T06:43:13;101436.78;;;22.72;100.00
36014;BME280;22275;43.208;27.620;2023-09-30T06:45:41;101439.78;;;22.69;100.00
36014;BME280;22275;43.208;27.620;2023-09-30T06:48:09;101423.03;;;22.75;100.00
36014;BME280;22275;43.208;27.620;2023-09-30T06:50:44;101432.41;;;22.71;100.00
36014;BME280;22275;43.208;27.620;2023-09-30T06:53:11;101438.19;;;22.76;100.00
36014;BME280;22275;43.208;27.620;2023-09-30T06:55:39;101428.13;;;22.78;100.00
36014;BME280;22275;43.208;27.620;2023-09-30T06:58:06;101424.09;;;23.00;100.00
36014;BME280;22275;43.208;27.620;2023-09-30T07:00:36;101429.09;;;22.95;100.00
36014;BME280;22275;43.208;27.620;2023-09-30T07:03:04;101417.50;;;22.94;100.00
36014;BME280;22275;43.208;27.620;2023-09-30T07:05:31;101430.78;;;23.13;100.00
36014;BME280;22275;43.208;27.620;2023-09-30T07:08:00;101423.25;;;23.17;100.00
36014;BME280;22275;43.208;27.620;2023-09-30T07:10:27;101421.84;;;23.30;100.00
36014;BME280;22275;43.208;27.620;2023-09-30T07:12:55;101405.09;;;23.36;100.00
36014;BME280;22275;43.208;27.620;2023-09-30T07:15:22;101409.56;;;23.28;100.00
36014;BME280;22275;43.208;27.620;2023-09-30T07:17:50;101423.91;;;23.36;100.00
36014;BME280;22275;43.208;27.620;2023-09-30T07:20:17;101395.53;;;23.16;100.00
36014;BME280;22275;43.208;27.620;2023-09-30T07:22:45;101421.00;;;23.48;100.00
36014;BME280;22275;43.208;27.620;2023-09-30T07:25:14;101410.34;;;23.89;100.00
36014;BME280;22275;43.208;27.620;2023-09-30T07:27:43;101411.16;;;23.90;100.00
36014;BME280;22275;43.208;27.620;2023-09-30T07:30:11;101412.03;;;24.32;100.00
36014;BME280;22275;43.208;27.620;2023-09-30T07:32:41;101396.16;;;24.13;100.00
36014;BME280;22275;43.208;27.620;2023-09-30T07:35:09;101394.53;;;24.28;100.00
36014;BME280;22275;43.208;27.620;2023-09-30T07:37:37;101413.41;;;24.36;100.00
36014;BME280;22275;43.208;27.620;2023-09-30T07:40:06;101400.63;;;24.46;100.00
36014;BME280;22275;43.208;27.620;2023-09-30T07:42:34;101389.84;;;24.46;100.00
36014;BME280;22275;43.208;27.620;2023-09-30T07:45:02;101414.91;;;24.89;100.00
36014;BME280;22275;43.208;27.620;2023-09-30T07:47:30;101413.81;;;24.74;100.00
36014;BME280;22275;43.208;27.620;2023-09-30T07:49:59;101407.25;;;24.76;100.00
36014;BME280;22275;43.208;27.620;2023-09-30T07:52:28;101397.69;;;24.82;100.00
36014;BME280;22275;43.208;27.620;2023-09-30T07:54:55;101405.78;;;24.90;100.00
36014;BME280;22275;43.208;27.620;2023-09-30T07:57:22;101382.38;;;24.98;100.00
36014;BME280;22275;43.208;27.620;2023-09-30T07:59:51;101401.41;;;25.13;100.00
36014;BME280;22275;43.208;27.620;2023-09-30T08:02:18;101400.53;;;25.61;100.00
36014;BME280;22275;43.208;27.620;2023-09-30T08:04:48;101423.94;;;25.77;100.00
36014;BME280;22275;43.208;27.620;2023-09-30T08:07:15;101415.28;;;25.89;100.00
36014;BME280;22275;43.208;27.620;2023-09-30T08:09:42;101394.97;;;26.17;100.00
36014;BME280;22275;43.208;27.620;2023-09-30T08:12:10;101426.66;;;26.23;100.00
36014;BME280;22275;43.208;27.620;2023-09-30T08:14:38;101415.72;;;26.09;100.00
36014;BME280;22275;43.208;27.620;2023-09-30T08:17:06;101398.31;;;26.11;100.00
36014;BME280;22275;43.208;27.620;2023-09-30T08:19:33;101375.59;;;25.98;100.00
36014;BME280;22275;43.208;27.620;2023-09-30T08:22:01;101406.94;;;26.15;100.00
36014;BME280;22275;43.208;27.620;2023-09-30T08:24:29;101390.06;;;26.13;100.00
36014;BME280;22275;43.208;27.620;2023-09-30T08:26:56;101392.47;;;26.08;100.00
36014;BME280;22275;43.208;27.620;2023-09-30T08:29:23;101385.59;;;26.36;100.00
36014;BME280;22275;43.208;27.620;2023-09-30T08:31:50;101381.78;;;26.45;100.00
36014;BME280;22275;43.208;27.620;2023-09-30T08:34:19;101389.91;;;26.45;100.00
36014;BME280;22275;43.208;27.620;2023-09-30T08:36:47;101393.38;;;26.54;100.00
36014;BME280;22275;43.208;27.620;2023-09-30T08:39:14;101379.78;;;26.70;100.00
36014;BME280;22275;43.208;27.620;2023-09-30T08:41:42;101374.94;;;26.88;100.00
36014;BME280;22275;43.208;27.620;2023-09-30T08:44:11;101375.75;;;26.66;100.00
36014;BME280;22275;43.208;27.620;2023-09-30T08:46:39;101380.28;;;26.51;100.00
36014;BME280;22275;43.208;27.620;2023-09-30T08:49:07;101376.44;;;26.37;100.00
36014;BME280;22275;43.208;27.620;2023-09-30T08:51:36;101377.28;;;26.38;100.00
36014;BME280;22275;43.208;27.620;2023-09-30T08:54:05;101376.94;;;26.41;100.00
36014;BME280;22275;43.208;27.620;2023-09-30T08:56:32;101373.78;;;26.82;100.00
36014;BME280;22275;43.208;27.620;2023-09-30T08:59:01;101370.38;;;26.89;100.00
36014;BME280;22275;43.208;27.620;2023-09-30T09:01:30;101357.91;;;27.02;100.00
36014;BME280;22275;43.208;27.620;2023-09-30T09:03:58;101368.84;;;27.46;100.00
36014;BME280;22275;43.208;27.620;2023-09-30T09:06:26;101354.38;;;27.16;100.00
36014;BME280;22275;43.208;27.620;2023-09-30T09:09:12;101368.97;;;27.53;100.00
36014;BME280;22275;43.208;27.620;2023-09-30T09:11:40;101356.88;;;27.84;100.00
36014;BME280;22275;43.208;27.620;2023-09-30T09:14:07;101351.56;;;27.62;100.00
36014;BME280;22275;43.208;27.620;2023-09-30T09:16:35;101357.66;;;27.78;100.00
36014;BME280;22275;43.208;27.620;2023-09-30T09:19:13;101351.78;;;27.60;100.00
36014;BME280;22275;43.208;27.620;2023-09-30T09:21:53;101364.84;;;27.86;100.00
36014;BME280;22275;43.208;27.620;2023-09-30T09:24:30;101356.72;;;28.15;100.00
36014;BME280;22275;43.208;27.620;2023-09-30T09:27:04;101344.28;;;28.06;100.00
36014;BME280;22275;43.208;27.620;2023-09-30T09:29:32;101341.47;;;28.14;100.00
36014;BME280;22275;43.208;27.620;2023-09-30T09:32:13;101347.09;;;27.98;100.00
36014;BME280;22275;43.208;27.620;2023-09-30T09:34:44;101349.13;;;28.11;100.00
36014;BME280;22275;43.208;27.620;2023-09-30T09:37:16;101342.03;;;27.95;100.00
36014;BME280;22275;43.208;27.620;2023-09-30T09:39:53;101340.34;;;27.94;100.00
36014;BME280;22275;43.208;27.620;2023-09-30T09:42:25;101332.97;;;27.88;100.00
36014;BME280;22275;43.208;27.620;2023-09-30T09:44:55;101330.94;;;28.05;100.00
36014;BME280;22275;43.208;27.620;2023-09-30T09:47:24;101322.69;;;28.13;100.00
36014;BME280;22275;43.208;27.620;2023-09-30T09:49:51;101321.13;;;28.04;100.00
36014;BME280;22275;43.208;27.620;2023-09-30T09:52:20;101343.97;;;28.16;100.00
36014;BME280;22275;43.208;27.620;2023-09-30T09:54:48;101330.16;;;28.11;100.00
36014;BME280;22275;43.208;27.620;2023-09-30T09:57:18;101332.97;;;28.03;100.00
36014;BME280;22275;43.208;27.620;2023-09-30T09:59:47;101328.28;;;27.96;100.00
36014;BME280;22275;43.208;27.620;2023-09-30T10:02:15;101311.84;;;28.13;100.00
36014;BME280;22275;43.208;27.620;2023-09-30T10:04:44;101321.16;;;28.25;100.00
36014;BME280;22275;43.208;27.620;2023-09-30T10:07:15;101319.75;;;28.50;100.00
36014;BME280;22275;43.208;27.620;2023-09-30T10:09:47;101318.22;;;28.41;100.00
36014;BME280;22275;43.208;27.620;2023-09-30T10:12:18;101313.66;;;28.27;100.00
36014;BME280;22275;43.208;27.620;2023-09-30T10:14:47;101346.41;;;28.11;100.00
36014;BME280;22275;43.208;27.620;2023-09-30T10:17:14;101296.75;;;28.04;100.00
36014;BME280;22275;43.208;27.620;2023-09-30T10:20:05;101329.69;;;28.43;100.00
36014;BME280;22275;43.208;27.620;2023-09-30T10:22:33;101307.47;;;28.33;100.00
36014;BME280;22275;43.208;27.620;2023-09-30T10:25:01;101296.13;;;28.44;100.00
36014;BME280;22275;43.208;27.620;2023-09-30T10:27:50;101313.56;;;28.35;100.00
36014;BME280;22275;43.208;27.620;2023-09-30T10:30:17;101290.31;;;28.26;100.00
36014;BME280;22275;43.208;27.620;2023-09-30T10:33:09;101292.13;;;28.61;100.00
36014;BME280;22275;43.208;27.620;2023-09-30T10:35:43;101289.50;;;28.68;100.00
36014;BME280;22275;43.208;27.620;2023-09-30T10:38:37;101303.38;;;28.79;100.00
36014;BME280;22275;43.208;27.620;2023-09-30T10:41:08;101309.22;;;28.62;100.00
36014;BME280;22275;43.208;27.620;2023-09-30T10:43:38;101317.53;;;28.75;100.00
36014;BME280;22275;43.208;27.620;2023-09-30T10:46:31;101285.16;;;28.73;100.00
36014;BME280;22275;43.208;27.620;2023-09-30T10:49:29;101247.34;;;28.44;100.00
36014;BME280;22275;43.208;27.620;2023-09-30T10:52:01;101272.00;;;28.70;100.00
36014;BME280;22275;43.208;27.620;2023-09-30T10:54:31;101255.47;;;28.86;100.00
36014;BME280;22275;43.208;27.620;2023-09-30T10:56:59;101272.38;;;28.88;100.00
36014;BME280;22275;43.208;27.620;2023-09-30T10:59:30;101201.00;;;28.60;100.00
36014;BME280;22275;43.208;27.620;2023-09-30T11:02:00;101265.22;;;29.08;100.00
36014;BME280;22275;43.208;27.620;2023-09-30T11:04:27;101271.47;;;29.09;100.00
36014;BME280;22275;43.208;27.620;2023-09-30T11:06:55;101270.13;;;28.98;100.00
36014;BME280;22275;43.208;27.620;2023-09-30T11:09:23;101261.94;;;29.20;100.00
36014;BME280;22275;43.208;27.620;2023-09-30T11:11:51;101280.69;;;29.49;100.00
36014;BME280;22275;43.208;27.620;2023-09-30T11:14:21;101207.81;;;28.56;100.00
36014;BME280;22275;43.208;27.620;2023-09-30T11:16:51;101273.59;;;28.86;100.00
36014;BME280;22275;43.208;27.620;2023-09-30T11:19:19;101262.38;;;28.89;100.00
36014;BME280;22275;43.208;27.620;2023-09-30T11:21:48;101258.19;;;28.93;100.00
36014;BME280;22275;43.208;27.620;2023-09-30T11:24:15;101275.28;;;29.15;100.00
36014;BME280;22275;43.208;27.620;2023-09-30T11:26:42;101269.69;;;28.95;100.00
36014;BME280;22275;43.208;27.620;2023-09-30T11:29:11;101251.81;;;29.00;100.00
36014;BME280;22275;43.208;27.620;2023-09-30T11:31:40;101235.69;;;29.27;100.00
36014;BME280;22275;43.208;27.620;2023-09-30T11:34:10;101245.75;;;29.33;100.00
36014;BME280;22275;43.208;27.620;2023-09-30T11:36:38;101256.56;;;29.26;100.00
36014;BME280;22275;43.208;27.620;2023-09-30T11:39:08;101254.53;;;29.07;100.00
36014;BME280;22275;43.208;27.620;2023-09-30T11:41:38;101192.41;;;28.78;100.00
36014;BME280;22275;43.208;27.620;2023-09-30T11:44:08;101231.50;;;29.24;100.00
36014;BME280;22275;43.208;27.620;2023-09-30T11:46:49;101232.88;;;29.14;100.00
36014;BME280;22275;43.208;27.620;2023-09-30T11:49:29;101197.34;;;29.02;100.00
36014;BME280;22275;43.208;27.620;2023-09-30T11:51:58;101242.88;;;29.13;100.00
36014;BME280;22275;43.208;27.620;2023-09-30T11:54:30;101225.38;;;29.16;100.00
36014;BME280;22275;43.208;27.620;2023-09-30T11:56:58;101222.97;;;29.27;100.00
36014;BME280;22275;43.208;27.620;2023-09-30T11:59:25;101213.00;;;29.34;100.00
36014;BME280;22275;43.208;27.620;2023-09-30T12:01:52;101245.53;;;29.28;100.00
36014;BME280;22275;43.208;27.620;2023-09-30T12:04:20;101225.31;;;29.02;100.00
36014;BME280;22275;43.208;27.620;2023-09-30T12:06:49;101237.66;;;28.77;100.00
36014;BME280;22275;43.208;27.620;2023-09-30T12:09:16;101206.75;;;28.78;100.00
36014;BME280;22275;43.208;27.620;2023-09-30T12:11:48;101225.47;;;28.94;100.00
36014;BME280;22275;43.208;27.620;2023-09-30T12:14:15;101230.63;;;29.17;100.00
36014;BME280;22275;43.208;27.620;2023-09-30T12:16:43;101214.28;;;29.11;100.00
36014;BME280;22275;43.208;27.620;2023-09-30T12:19:11;101207.97;;;29.03;100.00
36014;BME280;22275;43.208;27.620;2023-09-30T12:21:41;101196.59;;;28.80;100.00
36014;BME280;22275;43.208;27.620;2023-09-30T12:24:10;101225.94;;;29.04;100.00
36014;BME280;22275;43.208;27.620;2023-09-30T12:26:41;101183.59;;;29.10;100.00
36014;BME280;22275;43.208;27.620;2023-09-30T12:29:09;101204.44;;;29.03;100.00
36014;BME280;22275;43.208;27.620;2023-09-30T12:31:36;101197.28;;;29.23;100.00
36014;BME280;22275;43.208;27.620;2023-09-30T12:34:04;101204.22;;;29.39;100.00
36014;BME280;22275;43.208;27.620;2023-09-30T12:36:31;101202.41;;;29.18;100.00
36014;BME280;22275;43.208;27.620;2023-09-30T12:38:58;101184.75;;;29.22;100.00